| Pilot: | GLD1774 Frankley M. | Aircraft: | ATCCOM.ATC_NAME CESSNA. | Distance: | 180NM |
| From: | TUPJ | To: | TJBQ | Duration: | 1.57 |
| Validation: | Valid | Tipo: | Charter | Tail Number: | PT-GLD |
| ZFW: | 1925 | Block Fuel/Init FOB | 155flight_details.php/109 | Flight Fuel | 155 |
| Passengers: | 2 | Cargo: | 50 | Alternate: | TJSJ |
| Departure Time: | 1211 | Cruise Speed: | 100 | Flight Level: | 4000 |
| Flight Type: | VFR | Aircraft Type: | C172 | Weight Unit: | Kg |
| Date: | 22/04/2026 | Comments: | GOLD ACARS | Network: | VATSIM |
| Crash: | No | Validator Comments: | Rating | 122.522 |
| ROUTE | SJU DDP BQN |
| REMARKS | OPR/GOLD VIRTUAL AIRLINES PER/L RMK/FROM TUPJ RMK/PIC GLD1774 RMK/EM TREINAMENTO IFR |
| Crash | OK | Beacon Lights off with engine on | OK | Speed above 250KIAS below 10.000ft | OK |
| Landing Lights OFF below 10.000ft | OK | Landing Lights ON above 10.000ft | OK | Stall | OK |
| Overspeed | OK | Pause | OK | Refuel | OK |
| Slew | OK | Taxi Lights OFF during taxi | OK | Land Lights OFF during take off | OK |
| Landing Lights OFF during landing | OK | Landed in not planned airfield | OK | Taxi speed above 25 kt | OK |
| Incorrect QNH during take off | OK | Incorrect QNH during landing | OK |
| Wind: | 49º/11 kt | Heading: | 74 |
| VS: | -129 ft/min | IAS: | 66 kt |
| Gforce: | 1.1584 G | Bank: | 0.1 |
| Pitch | 4.34 | Flaps | 33 |
| Nav Lights | ON | Landing Lights | ON |
| Beacon Lights | ON | Strobe Lights | ON |
| DATE | EVENT | IAS | ALTITUDE |
|---|---|---|---|
| 2026-04-22 12:11:11 | GOLD ACARS VERSION 3.3.6.9 | 0 | 0 |
| 2026-04-22 12:11:11 | BCN LIGHTS ON | 0 | 0 |
| 2026-04-22 12:11:11 | BOARDING | 0 | 11 |
| 2026-04-22 12:11:11 | STARTING ENGINE 1 | 0 | 11 |
| 2026-04-22 12:11:19 | TAXI LIGHTS ON | 0 | 11 |
| 2026-04-22 12:11:44 | TAXI TO THE RWY | 0 | 11 |
| 2026-04-22 12:12:32 | LND LIGHTS ON | 0 | 12 |
| 2026-04-22 12:12:33 | STB LIGHTS ON | 0 | 12 |
| 2026-04-22 12:14:55 | GEAR UP | 98 | 12 |
| 2026-04-22 12:15:07 | CLIMBING | 106 | 67 |
| 2026-04-22 12:15:49 | CRUISE | 103 | 601 |
| 2026-04-22 12:15:52 | CLIMBING | 108 | 625 |
| 2026-04-22 12:16:22 | CRUISE | 81 | 1129 |
| 2026-04-22 12:16:29 | CLIMBING | 88 | 1135 |
| 2026-04-22 12:16:33 | CRUISE | 89 | 1172 |
| 2026-04-22 12:16:35 | LANDING | 94 | 1166 |
| 2026-04-22 12:16:42 | CLIMBING | 103 | 1163 |
| 2026-04-22 12:16:50 | AP ENGAGED | 95 | 1267 |
| 2026-04-22 12:16:51 | CRUISE | 97 | 1276 |
| 2026-04-22 12:16:58 | CLIMBING | 98 | 1296 |
| 2026-04-22 12:18:12 | CRUISE | 98 | 1920 |
| 2026-04-22 12:18:14 | CLIMBING | 98 | 1936 |
| 2026-04-22 12:22:26 | CRUISE | 92 | 3990 |
| 2026-04-22 12:57:31 | DESCEND | 112 | 4006 |
| 2026-04-22 13:39:43 | FLAP 33% | 87 | 1380 |
| 2026-04-22 13:44:06 | AP DISENGAGED | 99 | 387 |
| 2026-04-22 13:44:50 | LANDED AIRPORT [TJBQ] | 67 | 230 |
| 2026-04-22 13:44:50 | LANDED - VS: -129 ft/min | 65 | 228 |
| 2026-04-22 13:44:59 | TAXI TO THE GATE | 28 | 223 |
| 2026-04-22 13:45:14 | FLIGHT FINISHED | 19 | 219 |
| DATE | IAS | GS | ALTITUDE | FUEL USED | OAT | Flight Phase |
|---|---|---|---|---|---|---|
| 2026-04-22 12:12:39 | 0 | 16 | 11 | 0 | 27 | BOARDING |
| 2026-04-22 12:13:39 | 0 | 17 | 11 | 0 | 27 | TAXI TO THE RWY |
| 2026-04-22 12:14:39 | 69 | 73 | 12 | 0 | 27 | TAXI TO THE RWY |
| 2026-04-22 12:15:39 | 98 | 99 | 505 | 1 | 26 | TAXI TO THE RWY |
| 2026-04-22 12:16:39 | 103 | 115 | 1147 | 2 | 22 | CLIMBING |
| 2026-04-22 12:17:39 | 97 | 113 | 1649 | 3 | 20 | LANDING |
| 2026-04-22 12:18:40 | 97 | 114 | 2151 | 3 | 19 | CLIMBING |
| 2026-04-22 12:19:40 | 100 | 119 | 2653 | 4 | 18 | CLIMBING |
| 2026-04-22 12:20:40 | 102 | 116 | 3148 | 5 | 17 | CLIMBING |
| 2026-04-22 12:21:40 | 95 | 112 | 3619 | 5 | 16 | CLIMBING |
| 2026-04-22 12:22:40 | 102 | 119 | 4008 | 6 | 16 | CLIMBING |
| 2026-04-22 12:23:40 | 117 | 132 | 4005 | 7 | 16 | CRUISE |
| 2026-04-22 12:24:41 | 117 | 130 | 4006 | 7 | 16 | CRUISE |
| 2026-04-22 12:25:41 | 118 | 130 | 4007 | 8 | 16 | CRUISE |
| 2026-04-22 12:26:41 | 115 | 130 | 4003 | 8 | 16 | CRUISE |
| 2026-04-22 12:27:41 | 116 | 132 | 4006 | 9 | 16 | CRUISE |
| 2026-04-22 12:28:42 | 113 | 129 | 3998 | 10 | 16 | CRUISE |
| 2026-04-22 12:29:42 | 100 | 117 | 3990 | 10 | 16 | CRUISE |
| 2026-04-22 12:30:42 | 98 | 116 | 3994 | 11 | 16 | CRUISE |
| 2026-04-22 12:31:42 | 101 | 116 | 3999 | 11 | 16 | CRUISE |
| 2026-04-22 12:32:42 | 101 | 118 | 4002 | 11 | 16 | CRUISE |
| 2026-04-22 12:33:42 | 99 | 116 | 3999 | 12 | 16 | CRUISE |
| 2026-04-22 12:34:43 | 101 | 118 | 4002 | 12 | 16 | CRUISE |
| 2026-04-22 12:35:43 | 99 | 115 | 3995 | 13 | 16 | CRUISE |
| 2026-04-22 12:36:43 | 98 | 114 | 3996 | 13 | 16 | CRUISE |
| 2026-04-22 12:37:43 | 101 | 117 | 4005 | 14 | 16 | CRUISE |
| 2026-04-22 12:38:43 | 99 | 116 | 4000 | 14 | 16 | CRUISE |
| 2026-04-22 12:39:43 | 97 | 115 | 3993 | 15 | 16 | CRUISE |
| 2026-04-22 12:40:44 | 100 | 117 | 4000 | 15 | 16 | CRUISE |
| 2026-04-22 12:41:44 | 101 | 118 | 4002 | 15 | 16 | CRUISE |
| 2026-04-22 12:42:44 | 99 | 118 | 4000 | 16 | 16 | CRUISE |
| 2026-04-22 12:43:44 | 100 | 118 | 3999 | 16 | 16 | CRUISE |
| 2026-04-22 12:44:44 | 100 | 117 | 4000 | 17 | 16 | CRUISE |
| 2026-04-22 12:45:45 | 97 | 115 | 3995 | 17 | 16 | CRUISE |
| 2026-04-22 12:46:45 | 102 | 117 | 4002 | 18 | 16 | CRUISE |
| 2026-04-22 12:47:45 | 101 | 117 | 4001 | 18 | 16 | CRUISE |
| 2026-04-22 12:48:45 | 99 | 115 | 3993 | 18 | 16 | CRUISE |
| 2026-04-22 12:49:45 | 101 | 117 | 3998 | 19 | 16 | CRUISE |
| 2026-04-22 12:50:46 | 101 | 117 | 3998 | 19 | 16 | CRUISE |
| 2026-04-22 12:51:46 | 107 | 123 | 4010 | 20 | 16 | CRUISE |
| 2026-04-22 12:52:46 | 107 | 125 | 4006 | 20 | 16 | CRUISE |
| 2026-04-22 12:53:46 | 107 | 124 | 4005 | 21 | 16 | CRUISE |
| 2026-04-22 12:54:46 | 107 | 123 | 4005 | 21 | 16 | CRUISE |
| 2026-04-22 12:55:46 | 110 | 123 | 4008 | 22 | 16 | CRUISE |
| 2026-04-22 12:56:47 | 107 | 122 | 3998 | 22 | 16 | CRUISE |
| 2026-04-22 12:57:47 | 112 | 126 | 3998 | 23 | 16 | CRUISE |
| 2026-04-22 12:58:47 | 110 | 124 | 3991 | 23 | 16 | DESCEND |
| 2026-04-22 12:59:47 | 110 | 123 | 3991 | 24 | 16 | DESCEND |
| 2026-04-22 13:00:48 | 118 | 132 | 4010 | 25 | 16 | DESCEND |
| 2026-04-22 13:01:48 | 120 | 134 | 3996 | 25 | 16 | DESCEND |
| 2026-04-22 13:02:48 | 111 | 123 | 3998 | 26 | 16 | DESCEND |
| 2026-04-22 13:03:48 | 109 | 123 | 3992 | 26 | 16 | DESCEND |
| 2026-04-22 13:04:49 | 109 | 123 | 3991 | 27 | 16 | DESCEND |
| 2026-04-22 13:05:49 | 111 | 125 | 3997 | 27 | 16 | DESCEND |
| 2026-04-22 13:06:49 | 117 | 132 | 4006 | 28 | 16 | DESCEND |
| 2026-04-22 13:07:49 | 114 | 130 | 4004 | 28 | 16 | DESCEND |
| 2026-04-22 13:08:50 | 109 | 124 | 3990 | 29 | 16 | DESCEND |
| 2026-04-22 13:09:50 | 110 | 125 | 4004 | 29 | 16 | DESCEND |
| 2026-04-22 13:10:50 | 106 | 124 | 3998 | 30 | 16 | DESCEND |
| 2026-04-22 13:11:50 | 109 | 125 | 3989 | 30 | 16 | DESCEND |
| 2026-04-22 13:12:50 | 105 | 123 | 3996 | 31 | 16 | DESCEND |
| 2026-04-22 13:13:50 | 112 | 130 | 4009 | 31 | 16 | DESCEND |
| 2026-04-22 13:14:50 | 114 | 132 | 4008 | 32 | 16 | DESCEND |
| 2026-04-22 13:15:50 | 108 | 124 | 3995 | 32 | 16 | DESCEND |
| 2026-04-22 13:16:51 | 116 | 133 | 4011 | 33 | 16 | DESCEND |
| 2026-04-22 13:17:51 | 122 | 136 | 4008 | 33 | 16 | DESCEND |
| 2026-04-22 13:18:51 | 107 | 124 | 3994 | 34 | 16 | DESCEND |
| 2026-04-22 13:19:51 | 108 | 126 | 3997 | 34 | 16 | DESCEND |
| 2026-04-22 13:20:52 | 109 | 126 | 3998 | 35 | 16 | DESCEND |
| 2026-04-22 13:21:52 | 110 | 127 | 3999 | 35 | 16 | DESCEND |
| 2026-04-22 13:22:52 | 109 | 125 | 3998 | 36 | 16 | DESCEND |
| 2026-04-22 13:23:52 | 106 | 124 | 3992 | 36 | 17 | DESCEND |
| 2026-04-22 13:24:53 | 107 | 124 | 3992 | 37 | 17 | DESCEND |
| 2026-04-22 13:25:53 | 109 | 127 | 4000 | 38 | 17 | DESCEND |
| 2026-04-22 13:26:53 | 110 | 127 | 3997 | 38 | 17 | DESCEND |
| 2026-04-22 13:27:53 | 126 | 143 | 3670 | 39 | 17 | DESCEND |
| 2026-04-22 13:28:53 | 92 | 110 | 2644 | 39 | 19 | DESCEND |
| 2026-04-22 13:29:54 | 99 | 117 | 2499 | 39 | 19 | DESCEND |
| 2026-04-22 13:30:54 | 98 | 115 | 2509 | 40 | 19 | DESCEND |
| 2026-04-22 13:31:54 | 107 | 122 | 2508 | 40 | 19 | DESCEND |
| 2026-04-22 13:32:54 | 108 | 124 | 2502 | 41 | 19 | DESCEND |
| 2026-04-22 13:33:54 | 109 | 123 | 2510 | 41 | 19 | DESCEND |
| 2026-04-22 13:34:55 | 103 | 122 | 2496 | 42 | 19 | DESCEND |
| 2026-04-22 13:35:55 | 110 | 123 | 2456 | 42 | 19 | DESCEND |
| 2026-04-22 13:36:55 | 115 | 116 | 2141 | 43 | 20 | DESCEND |
| 2026-04-22 13:37:56 | 109 | 110 | 1904 | 43 | 20 | DESCEND |
| 2026-04-22 13:38:56 | 115 | 113 | 1668 | 44 | 20 | DESCEND |
| 2026-04-22 13:39:56 | 93 | 90 | 1344 | 44 | 21 | DESCEND |
| 2026-04-22 13:40:56 | 81 | 81 | 1042 | 44 | 23 | DESCEND |
| 2026-04-22 13:41:56 | 97 | 94 | 1011 | 45 | 23 | DESCEND |
| 2026-04-22 13:42:57 | 109 | 109 | 758 | 45 | 26 | DESCEND |
| 2026-04-22 13:43:57 | 94 | 91 | 435 | 46 | 28 | DESCEND |
| 2026-04-22 13:44:57 | 41 | 42 | 223 | 46 | 28 | DESCEND |